This is the latest recevied weather packets stored in our database for station/object EA1JAV-10. If no packets are shown the sender has not sent any weather packets the latest 10 day(s).
| Time | Temp. | Humidity | Pressure | Rain* | Wind** | Luminosity | Snow |
|---|---|---|---|---|---|---|---|
| 1777393544 | 25° C | 34% | 993.5 hPa | - | - | - | - |
| 1777391744 | 25° C | 33% | 993.7 hPa | - | - | - | - |
| 1777389943 | 25° C | 34% | 993.5 hPa | - | - | - | - |
| 1777388143 | 25.56° C | 32% | 993.5 hPa | - | - | - | - |
| 1777386343 | 23.89° C | 35% | 993.9 hPa | - | - | - | - |
| 1777384543 | 23.33° C | 36% | 994.1 hPa | - | - | - | - |
| 1777382742 | 22.78° C | 36% | 994.7 hPa | - | - | - | - |
| 1777380942 | 22.22° C | 38% | 995.3 hPa | - | - | - | - |
| 1777379142 | 21.67° C | 39% | 995.7 hPa | - | - | - | - |
| 1777377342 | 21.11° C | 40% | 996.2 hPa | - | - | - | - |
| 1777375542 | 20.56° C | 42% | 996.7 hPa | - | - | - | - |
| 1777373742 | 20° C | 44% | 996.8 hPa | - | - | - | - |
| 1777371941 | 19.44° C | 44% | 997.1 hPa | - | - | - | - |
| 1777370141 | 18.89° C | 45% | 997.3 hPa | - | - | - | - |
| 1777368341 | 18.33° C | 45% | 997.5 hPa | - | - | - | - |
| 1777366540 | 17.78° C | 45% | 997.6 hPa | - | - | - | - |
| 1777364740 | 20° C | 41% | 997.5 hPa | - | - | - | - |
| 1777362940 | 17.22° C | 46% | 997.6 hPa | - | - | - | - |
| 1777361140 | 16.67° C | 46% | 997.6 hPa | - | - | - | - |
| 1777359339 | 17.22° C | 45% | 997.6 hPa | - | - | - | - |
| 1777357539 | 17.22° C | 44% | 997.5 hPa | - | - | - | - |
| 1777355739 | 17.22° C | 44% | 997.4 hPa | - | - | - | - |
| 1777353939 | 17.22° C | 43% | 997.4 hPa | - | - | - | - |
| 1777352139 | 20° C | 40% | 997.5 hPa | - | - | - | - |
| 1777350339 | 17.22° C | 43% | 997.6 hPa | - | - | - | - |
* Rain since midnight (hover to see other rain measurements)
** Current wind speed in m/s (hover to see current wind gust speed)